Time;durP1;ratioP1;P1;durP2;ratioP2;P2;SDS_P1;SDS_P2;PMS_P1;PMS_P2;Temp;Humidity;BMP_temperature;BMP_pressure;BME280_temperature;BME280_humidity;BME280_pressure;Samples;Min_cycle;Max_cycle;Signal;HPM_P1;HPM_P2
2021/12/08 00:00:19;;;;;;;0.70;0.50;;;4.90;99.90;;;;;;5053767;28;20406;-72
2021/12/08 00:02:45;;;;;;;0.87;0.80;;;4.80;99.90;;;;;;5053782;28;20409;-72
2021/12/08 00:05:14;;;;;;;0.70;0.50;;;4.80;99.90;;;;;;5053188;28;20506;-71
2021/12/08 00:07:41;;;;;;;0.70;0.40;;;4.60;99.90;;;;;;5052106;28;20409;-70
2021/12/08 00:13:04;;;;;;;0.70;0.50;;;4.40;99.90;;;;;;5010830;28;20810;-70
2021/12/08 00:15:54;;;;;;;0.70;0.50;;;4.40;99.90;;;;;;5053023;28;20492;-70
2021/12/08 00:18:24;;;;;;;0.70;0.50;;;4.30;99.90;;;;;;5053097;28;20424;-71
2021/12/08 00:20:52;;;;;;;0.70;0.60;;;4.20;99.90;;;;;;5053285;28;20423;-71
2021/12/08 00:23:19;;;;;;;0.70;0.50;;;4.20;99.90;;;;;;5053020;28;20910;-71
2021/12/08 00:25:46;;;;;;;0.70;0.50;;;4.30;99.90;;;;;;5053482;28;20416;-71
2021/12/08 00:28:12;;;;;;;0.70;0.50;;;4.30;99.90;;;;;;5053632;28;20484;-71
2021/12/08 00:30:42;;;;;;;0.63;0.43;;;4.30;99.90;;;;;;5053299;28;20982;-71
2021/12/08 00:33:08;;;;;;;0.70;0.50;;;4.30;99.90;;;;;;5053504;28;20405;-71
2021/12/08 00:35:35;;;;;;;0.70;0.60;;;4.40;99.90;;;;;;5053190;28;20819;-71
2021/12/08 00:38:01;;;;;;;0.80;0.60;;;4.40;99.90;;;;;;5053039;28;20409;-72
2021/12/08 00:40:28;;;;;;;0.70;0.40;;;4.40;99.90;;;;;;5068508;28;20991;-71
2021/12/08 00:42:54;;;;;;;0.60;0.47;;;4.40;99.90;;;;;;5053336;28;20170;-71
2021/12/08 00:45:21;;;;;;;0.67;0.50;;;4.50;99.90;;;;;;5053091;28;21084;-71
2021/12/08 00:47:48;;;;;;;0.60;0.40;;;4.60;99.90;;;;;;5053368;28;20162;-71
2021/12/08 00:50:16;;;;;;;0.70;0.40;;;4.80;99.90;;;;;;5053030;28;20807;-69
2021/12/08 00:52:42;;;;;;;0.70;0.50;;;4.90;99.90;;;;;;5052976;28;20426;-69
2021/12/08 00:55:12;;;;;;;0.60;0.40;;;5.00;99.90;;;;;;5052305;28;20832;-69
2021/12/08 00:57:38;;;;;;;0.60;0.40;;;5.10;99.90;;;;;;5052212;28;20756;-69
2021/12/08 01:00:07;;;;;;;0.70;0.43;;;5.10;99.90;;;;;;5052376;28;20409;-70
2021/12/08 01:02:33;;;;;;;0.60;0.40;;;5.20;99.90;;;;;;5052303;28;20795;-70
2021/12/08 01:05:00;;;;;;;0.60;0.50;;;5.20;99.90;;;;;;5051924;28;20398;-69
2021/12/08 01:07:25;;;;;;;0.60;0.50;;;5.30;99.90;;;;;;5052184;28;20246;-69
2021/12/08 01:09:51;;;;;;;0.60;0.50;;;5.30;99.90;;;;;;5052327;28;20505;-72
2021/12/08 01:12:16;;;;;;;0.60;0.43;;;5.40;99.90;;;;;;5052046;28;20210;-70
2021/12/08 01:14:42;;;;;;;0.70;0.60;;;5.40;99.90;;;;;;5052179;28;20206;-72
2021/12/08 01:17:09;;;;;;;0.60;0.50;;;5.40;99.90;;;;;;5051898;28;20171;-70
2021/12/08 01:19:35;;;;;;;0.60;0.43;;;5.50;99.90;;;;;;5052120;28;20167;-70
2021/12/08 01:22:00;;;;;;;0.60;0.50;;;5.50;99.90;;;;;;5051962;28;20427;-70
2021/12/08 01:24:26;;;;;;;0.60;0.40;;;5.50;99.90;;;;;;5051717;28;20229;-70
2021/12/08 01:26:51;;;;;;;1.80;1.37;;;5.50;99.90;;;;;;5051196;28;20170;-70
2021/12/08 01:29:17;;;;;;;1.07;0.80;;;5.60;99.90;;;;;;5051939;28;20193;-71
2021/12/08 01:31:44;;;;;;;0.60;0.50;;;5.60;99.90;;;;;;5051577;28;20545;-70
2021/12/08 01:34:11;;;;;;;0.70;0.60;;;5.60;99.90;;;;;;5051855;28;20167;-69
2021/12/08 01:36:37;;;;;;;0.70;0.50;;;5.70;99.90;;;;;;5050214;28;20409;-70
2021/12/08 01:39:05;;;;;;;0.60;0.50;;;5.70;99.90;;;;;;5051855;28;20402;-70
2021/12/08 01:41:31;;;;;;;0.70;0.70;;;5.70;99.90;;;;;;5051712;28;20788;-70
2021/12/08 01:46:40;;;;;;;1.00;1.00;;;5.70;99.90;;;;;;5051719;28;20666;-70
2021/12/08 01:49:06;;;;;;;1.83;1.73;;;5.80;99.90;;;;;;5051840;28;20409;-70
2021/12/08 01:51:32;;;;;;;0.60;0.40;;;5.80;99.90;;;;;;5051603;28;20203;-69
2021/12/08 01:54:01;;;;;;;0.60;0.50;;;5.80;99.90;;;;;;5051712;28;20198;-69
2021/12/08 01:56:29;;;;;;;0.60;0.50;;;5.90;99.90;;;;;;5051328;28;20425;-70
2021/12/08 01:58:55;;;;;;;0.60;0.40;;;5.90;99.90;;;;;;5051715;28;20402;-70
2021/12/08 02:01:24;;;;;;;0.60;0.40;;;5.90;99.90;;;;;;5050378;28;20437;-70
2021/12/08 02:03:51;;;;;;;0.60;0.50;;;5.90;99.90;;;;;;5051759;28;20423;-70
2021/12/08 02:06:19;;;;;;;0.70;0.50;;;5.80;99.90;;;;;;5051278;28;20416;-70
2021/12/08 02:08:47;;;;;;;0.60;0.50;;;5.80;99.90;;;;;;5051710;28;20882;-69
2021/12/08 02:11:13;;;;;;;0.60;0.47;;;5.80;99.90;;;;;;5051579;28;20830;-69
2021/12/08 02:13:40;;;;;;;0.60;0.40;;;5.80;99.90;;;;;;5051679;28;20410;-69
2021/12/08 02:16:12;;;;;;;0.60;0.43;;;5.80;99.90;;;;;;5051221;28;20410;-70
2021/12/08 02:18:38;;;;;;;0.60;0.40;;;5.80;99.90;;;;;;5051528;28;20401;-70
2021/12/08 02:21:18;;;;;;;0.60;0.40;;;5.80;99.90;;;;;;5051387;28;20425;-70
2021/12/08 02:23:44;;;;;;;0.60;0.50;;;5.80;99.90;;;;;;5051545;28;20439;-69
2021/12/08 02:26:09;;;;;;;0.60;0.43;;;5.90;99.90;;;;;;5051212;28;20441;-70
2021/12/08 02:28:35;;;;;;;0.63;0.47;;;5.90;99.90;;;;;;5051416;28;20657;-69
2021/12/08 02:31:05;;;;;;;0.70;0.40;;;5.90;99.90;;;;;;5051324;28;20203;-70
2021/12/08 02:47:32;;;;;;;0.60;0.50;;;6.00;99.90;;;;;;5055136;28;20395;-69
2021/12/08 02:49:58;;;;;;;0.60;0.40;;;6.10;99.90;;;;;;5055135;28;20902;-70
2021/12/08 02:52:24;;;;;;;0.60;0.47;;;6.10;99.90;;;;;;5054663;28;20531;-69
2021/12/08 02:54:51;;;;;;;0.60;0.40;;;6.10;99.90;;;;;;5070027;28;20724;-69
2021/12/08 02:57:23;;;;;;;0.60;0.40;;;6.20;99.90;;;;;;5054791;28;20186;-70
2021/12/08 02:59:49;;;;;;;0.60;0.50;;;6.20;99.90;;;;;;5054898;28;20398;-69
2021/12/08 03:02:16;;;;;;;0.60;0.40;;;6.20;99.90;;;;;;5054685;28;20467;-70
2021/12/08 03:04:42;;;;;;;0.60;0.50;;;6.30;99.90;;;;;;5054578;28;20484;-70
2021/12/08 03:07:08;;;;;;;0.60;0.50;;;6.20;99.90;;;;;;5054530;28;20266;-69
2021/12/08 03:09:34;;;;;;;0.60;0.50;;;6.20;99.90;;;;;;5054751;28;20171;-70
2021/12/08 03:12:01;;;;;;;0.60;0.40;;;6.30;99.90;;;;;;5054374;28;20466;-70
2021/12/08 03:14:29;;;;;;;0.60;0.40;;;6.30;99.90;;;;;;5054886;28;20167;-70
2021/12/08 03:16:58;;;;;;;0.60;0.50;;;6.30;99.90;;;;;;5054339;28;20471;-70
2021/12/08 03:19:26;;;;;;;0.70;0.50;;;6.30;99.90;;;;;;5054528;28;20401;-70
2021/12/08 03:21:53;;;;;;;0.60;0.50;;;6.40;99.90;;;;;;5054426;28;20794;-69
2021/12/08 03:24:35;;;;;;;0.60;0.40;;;6.40;99.90;;;;;;5054390;28;20410;-70
2021/12/08 03:29:35;;;;;;;0.60;0.40;;;6.40;99.90;;;;;;5054337;28;20414;-69
2021/12/08 03:32:07;;;;;;;0.70;0.53;;;6.40;99.90;;;;;;5054271;28;20468;-69
2021/12/08 03:34:37;;;;;;;0.60;0.40;;;6.40;99.90;;;;;;5052925;28;20463;-70
2021/12/08 03:37:05;;;;;;;0.70;0.50;;;6.50;99.90;;;;;;5054012;28;20410;-70
2021/12/08 03:39:31;;;;;;;0.60;0.40;;;6.50;99.90;;;;;;5054176;28;20414;-70
2021/12/08 03:41:57;;;;;;;0.60;0.43;;;6.40;99.90;;;;;;5054105;28;20804;-70
2021/12/08 03:44:23;;;;;;;0.60;0.50;;;6.50;99.90;;;;;;5053972;28;20414;-70
2021/12/08 03:46:50;;;;;;;0.70;0.50;;;6.50;99.90;;;;;;5068881;28;20252;-70
2021/12/08 03:49:17;;;;;;;0.60;0.40;;;6.50;99.90;;;;;;5069349;28;20636;-70
2021/12/08 03:51:43;;;;;;;0.60;0.50;;;6.50;99.90;;;;;;5053807;28;20461;-70
2021/12/08 03:54:11;;;;;;;0.60;0.50;;;6.50;99.90;;;;;;5053833;28;20745;-69
2021/12/08 03:56:37;;;;;;;0.60;0.40;;;6.50;99.90;;;;;;5052038;28;20699;-70
2021/12/08 03:59:04;;;;;;;0.60;0.50;;;6.50;99.90;;;;;;5053851;28;20406;-70
2021/12/08 04:01:30;;;;;;;0.63;0.50;;;6.50;99.90;;;;;;5053657;28;20454;-70
2021/12/08 04:04:01;;;;;;;0.60;0.40;;;6.50;99.90;;;;;;5053648;28;20493;-69
2021/12/08 04:06:50;;;;;;;0.70;0.50;;;6.50;99.90;;;;;;5053437;28;20191;-70
2021/12/08 04:09:18;;;;;;;0.60;0.40;;;6.50;99.90;;;;;;5053164;28;21086;-70
2021/12/08 04:11:46;;;;;;;0.93;0.93;;;6.50;99.90;;;;;;5053343;28;20496;-69
2021/12/08 04:14:16;;;;;;;0.63;0.50;;;6.50;99.90;;;;;;5053528;28;20406;-70
2021/12/08 04:16:59;;;;;;;0.60;0.50;;;6.50;99.90;;;;;;5053120;28;20402;-70
2021/12/08 04:19:26;;;;;;;0.60;0.50;;;6.50;99.90;;;;;;5053396;28;20436;-70
2021/12/08 04:21:54;;;;;;;0.60;0.50;;;6.50;99.90;;;;;;5053234;28;20536;-70
2021/12/08 04:24:20;;;;;;;0.60;0.50;;;6.50;99.90;;;;;;5053094;28;20405;-70
2021/12/08 04:27:04;;;;;;;0.60;0.40;;;6.40;99.90;;;;;;5052899;28;20409;-70
2021/12/08 04:29:33;;;;;;;0.60;0.50;;;6.30;99.90;;;;;;5053223;28;20428;-70
2021/12/08 04:32:00;;;;;;;5.60;0.77;;;5.90;99.90;;;;;;5052813;28;20534;-69
2021/12/08 04:34:32;;;;;;;0.60;0.50;;;5.80;99.90;;;;;;5052951;28;20402;-70
2021/12/08 04:37:03;;;;;;;0.67;0.47;;;5.70;99.90;;;;;;5052645;28;20451;-70
2021/12/08 04:42:28;;;;;;;1.43;1.23;;;5.50;99.90;;;;;;5052992;28;20433;-70
2021/12/08 04:45:02;;;;;;;0.60;0.50;;;5.40;99.90;;;;;;5052788;28;20795;-70
2021/12/08 04:47:35;;;;;;;0.70;0.60;;;5.30;99.90;;;;;;5052791;28;20401;-70
2021/12/08 05:01:30;;;;;;;0.60;0.40;;;5.20;99.90;;;;;;5052515;28;20841;-70
2021/12/08 05:09:08;;;;;;;0.60;0.40;;;5.00;99.90;;;;;;5052586;28;20965;-70
2021/12/08 05:11:36;;;;;;;0.60;0.50;;;5.00;99.90;;;;;;5052015;28;20467;-70
2021/12/08 05:14:16;;;;;;;1.23;1.03;;;4.90;99.90;;;;;;5052286;28;20405;-70
2021/12/08 05:16:44;;;;;;;0.60;0.50;;;4.90;99.90;;;;;;5052006;28;20412;-70
2021/12/08 05:19:13;;;;;;;0.60;0.50;;;4.90;99.90;;;;;;5052337;28;20772;-70
2021/12/08 05:21:43;;;;;;;0.60;0.50;;;4.80;99.90;;;;;;5052082;28;20949;-70
2021/12/08 05:24:21;;;;;;;0.60;0.40;;;4.80;99.90;;;;;;5052166;28;20462;-69
2021/12/08 05:27:07;;;;;;;4.80;0.87;;;4.80;99.90;;;;;;5051862;28;20488;-70
2021/12/08 05:29:41;;;;;;;0.63;0.50;;;4.80;99.90;;;;;;5052290;28;20981;-70
2021/12/08 05:32:08;;;;;;;0.70;0.57;;;4.90;99.90;;;;;;5051634;28;20460;-70
2021/12/08 05:34:36;;;;;;;0.70;0.50;;;4.90;99.90;;;;;;5052065;28;20998;-70
2021/12/08 05:37:05;;;;;;;0.60;0.50;;;4.90;99.90;;;;;;5051691;28;20841;-70
2021/12/08 05:39:31;;;;;;;0.60;0.50;;;4.90;99.90;;;;;;5052405;28;20492;-70
2021/12/08 05:42:01;;;;;;;0.60;0.50;;;4.90;99.90;;;;;;5051908;28;20511;-70
2021/12/08 05:44:27;;;;;;;0.60;0.40;;;5.00;99.90;;;;;;5052020;28;20409;-70
2021/12/08 05:46:55;;;;;;;0.60;0.50;;;5.00;99.90;;;;;;5051551;28;20775;-70
2021/12/08 05:49:22;;;;;;;0.60;0.40;;;5.00;99.90;;;;;;5052227;28;20920;-70
2021/12/08 05:51:50;;;;;;;0.60;0.40;;;4.90;99.90;;;;;;5051655;28;20460;-70
2021/12/08 05:54:20;;;;;;;1.03;0.90;;;4.90;99.90;;;;;;5051737;28;20500;-70
2021/12/08 05:56:48;;;;;;;0.60;0.40;;;4.90;99.90;;;;;;5051563;28;20986;-70
2021/12/08 05:59:15;;;;;;;0.73;0.73;;;4.90;99.90;;;;;;5051859;28;20410;-70
2021/12/08 06:01:44;;;;;;;0.60;0.50;;;4.90;99.90;;;;;;5051796;28;20519;-70
2021/12/08 06:04:11;;;;;;;0.60;0.40;;;4.90;99.90;;;;;;5051917;28;20413;-70
2021/12/08 06:06:38;;;;;;;0.60;0.40;;;4.80;99.90;;;;;;5051379;28;20493;-70
2021/12/08 06:09:07;;;;;;;0.60;0.40;;;4.70;99.90;;;;;;5050501;28;20432;-70
2021/12/08 06:11:33;;;;;;;0.60;0.50;;;4.90;99.90;;;;;;5055068;28;20548;-70
2021/12/08 06:14:00;;;;;;;0.60;0.40;;;4.90;99.90;;;;;;5055693;28;20834;-70
2021/12/08 06:16:31;;;;;;;2.30;2.10;;;5.00;99.90;;;;;;5055365;28;20167;-70
2021/12/08 06:18:57;;;;;;;0.60;0.50;;;5.20;99.90;;;;;;5055715;28;20418;-70
2021/12/08 06:21:26;;;;;;;0.60;0.47;;;5.30;99.90;;;;;;5055608;28;20482;-70
2021/12/08 06:23:53;;;;;;;0.60;0.40;;;5.40;99.90;;;;;;5055592;28;20416;-70
2021/12/08 06:26:21;;;;;;;0.70;0.70;;;5.50;99.90;;;;;;5055277;28;20405;-70
2021/12/08 06:28:47;;;;;;;0.60;0.40;;;5.60;99.90;;;;;;5055489;28;20402;-70
2021/12/08 06:31:15;;;;;;;0.60;0.47;;;5.60;99.90;;;;;;5055349;28;20464;-70
2021/12/08 06:33:41;;;;;;;0.60;0.60;;;5.70;99.90;;;;;;5055380;28;20159;-70
2021/12/08 06:36:14;;;;;;;0.60;0.50;;;5.70;99.90;;;;;;5055036;28;20408;-70
2021/12/08 06:38:41;;;;;;;0.70;0.50;;;5.80;99.90;;;;;;5055379;28;20401;-70
2021/12/08 06:41:13;;;;;;;0.60;0.50;;;5.90;99.90;;;;;;5055270;28;20429;-70
2021/12/08 06:43:42;;;;;;;0.60;0.50;;;5.90;99.90;;;;;;5055232;28;20405;-70
2021/12/08 06:46:09;;;;;;;0.70;0.60;;;5.90;99.90;;;;;;5055044;28;20417;-70
2021/12/08 06:48:39;;;;;;;0.60;0.50;;;5.90;99.90;;;;;;5055253;28;20398;-70
2021/12/08 06:51:13;;;;;;;0.60;0.40;;;6.00;99.90;;;;;;5054971;28;20453;-70
2021/12/08 06:53:43;;;;;;;0.60;0.50;;;6.00;99.90;;;;;;5055134;28;20404;-70
2021/12/08 06:56:19;;;;;;;0.60;0.40;;;6.00;99.90;;;;;;5054671;28;20422;-70
2021/12/08 06:58:48;;;;;;;0.90;0.80;;;6.00;99.90;;;;;;5070426;28;20413;-70
2021/12/08 07:01:29;;;;;;;0.60;0.50;;;6.00;99.90;;;;;;5054906;28;20436;-70
2021/12/08 07:04:54;;;;;;;0.70;0.50;;;5.90;99.90;;;;;;5055004;28;20499;-70
2021/12/08 07:07:01;;;;;;;0.60;0.40;;;5.90;99.90;;;;;;5040334;28;20409;-70
2021/12/08 07:09:46;;;;;;;0.60;0.50;;;5.80;99.90;;;;;;5054863;28;20448;-70
2021/12/08 07:12:31;;;;;;;0.70;0.40;;;5.70;99.90;;;;;;5054596;28;20464;-70
2021/12/08 07:15:12;;;;;;;0.63;0.50;;;5.70;99.90;;;;;;5069804;28;20413;-70
2021/12/08 07:17:41;;;;;;;0.60;0.50;;;5.60;99.90;;;;;;5054696;28;20410;-70
2021/12/08 07:20:17;;;;;;;0.70;0.40;;;5.60;99.90;;;;;;5054665;28;20401;-70
2021/12/08 07:22:46;;;;;;;0.60;0.50;;;5.60;99.90;;;;;;5053939;28;20428;-70
2021/12/08 07:25:14;;;;;;;0.60;0.47;;;5.50;99.90;;;;;;5054044;28;20798;-70
2021/12/08 07:27:40;;;;;;;0.70;0.50;;;5.60;99.90;;;;;;5054414;28;20406;-70
2021/12/08 07:30:17;;;;;;;0.60;0.40;;;5.50;99.90;;;;;;5054335;28;20850;-71
2021/12/08 07:32:43;;;;;;;0.60;0.40;;;5.40;99.90;;;;;;5054376;28;20830;-70
2021/12/08 07:35:17;;;;;;;0.60;0.40;;;5.50;99.90;;;;;;5054056;28;20915;-70
2021/12/08 07:37:44;;;;;;;0.60;0.50;;;5.40;99.90;;;;;;5054330;28;20503;-70
2021/12/08 07:40:14;;;;;;;0.70;0.60;;;5.30;99.90;;;;;;5054109;28;20389;-70
2021/12/08 07:42:54;;;;;;;0.60;0.50;;;5.30;99.90;;;;;;5052834;28;20959;-70
2021/12/08 07:45:35;;;;;;;0.60;0.50;;;5.20;99.90;;;;;;5053897;28;20389;-70
2021/12/08 07:48:04;;;;;;;0.60;0.40;;;5.20;99.90;;;;;;5054246;28;20494;-70
2021/12/08 07:50:41;;;;;;;0.60;0.40;;;5.20;99.90;;;;;;5053798;28;20945;-70
2021/12/08 07:53:10;;;;;;;0.60;0.50;;;5.20;99.90;;;;;;5054109;28;20397;-70
2021/12/08 07:55:39;;;;;;;0.70;0.50;;;5.20;99.90;;;;;;5053590;28;20795;-70
2021/12/08 07:58:07;;;;;;;0.60;0.50;;;5.20;99.90;;;;;;5053908;28;20405;-71
2021/12/08 08:00:46;;;;;;;0.60;0.50;;;5.30;99.90;;;;;;5053643;28;20479;-70
2021/12/08 08:03:13;;;;;;;0.60;0.40;;;5.30;99.90;;;;;;5053780;28;20417;-70
2021/12/08 08:05:41;;;;;;;0.60;0.50;;;5.40;99.90;;;;;;5051720;28;20444;-70
2021/12/08 08:08:10;;;;;;;0.70;0.40;;;5.40;99.90;;;;;;5055127;28;20412;-70
2021/12/08 08:10:42;;;;;;;0.60;0.50;;;5.50;99.90;;;;;;5056385;28;20421;-70
2021/12/08 08:13:09;;;;;;;0.70;0.70;;;5.50;99.90;;;;;;5070979;28;20421;-70
2021/12/08 08:15:40;;;;;;;2.50;1.47;;;5.60;99.90;;;;;;5053332;28;20405;-70
2021/12/08 08:18:09;;;;;;;0.60;0.50;;;5.60;99.90;;;;;;5053698;28;20921;-70
2021/12/08 08:20:40;;;;;;;0.60;0.40;;;5.70;99.90;;;;;;5056002;28;20974;-70
2021/12/08 08:23:06;;;;;;;0.60;0.40;;;5.60;99.90;;;;;;5054323;28;20421;-70
2021/12/08 08:25:40;;;;;;;0.70;0.50;;;5.70;99.90;;;;;;5055636;28;20405;-71
2021/12/08 08:28:07;;;;;;;0.60;0.50;;;5.70;99.90;;;;;;5055618;28;20444;-70
2021/12/08 08:30:38;;;;;;;0.60;0.40;;;5.70;99.90;;;;;;5055188;28;20998;-71
2021/12/08 08:33:05;;;;;;;0.70;0.50;;;5.80;99.90;;;;;;5054740;28;20430;-72
2021/12/08 08:35:38;;;;;;;0.60;0.47;;;5.80;99.90;;;;;;5054171;28;20470;-71
2021/12/08 08:38:17;;;;;;;2.50;1.13;;;6.00;99.90;;;;;;5054639;28;20417;-72
2021/12/08 08:40:49;;;;;;;0.63;0.40;;;6.00;99.90;;;;;;5055028;28;20425;-72
2021/12/08 08:43:16;;;;;;;0.80;0.80;;;6.10;99.90;;;;;;5054980;28;20420;-72
2021/12/08 08:45:41;;;;;;;0.60;0.50;;;6.10;99.90;;;;;;5054671;28;20421;-72
2021/12/08 08:48:16;;;;;;;0.70;0.40;;;6.10;99.90;;;;;;5055119;28;20409;-71
2021/12/08 08:50:55;;;;;;;0.70;0.50;;;6.20;99.90;;;;;;5054688;28;20226;-70
2021/12/08 08:53:25;;;;;;;0.60;0.50;;;6.10;99.90;;;;;;5055033;28;20408;-70
2021/12/08 08:55:59;;;;;;;1.47;1.23;;;6.10;99.90;;;;;;5052956;28;20482;-70
2021/12/08 08:58:27;;;;;;;0.60;0.40;;;6.10;99.90;;;;;;5055015;28;20405;-70
2021/12/08 09:01:07;;;;;;;0.60;0.50;;;6.10;99.90;;;;;;5055310;28;20430;-70
2021/12/08 09:03:36;;;;;;;0.70;0.50;;;6.20;99.90;;;;;;5054989;28;20506;-70
2021/12/08 09:06:20;;;;;;;0.60;0.40;;;6.30;99.90;;;;;;5052057;28;20451;-70
2021/12/08 09:08:46;;;;;;;0.70;0.50;;;6.50;99.90;;;;;;5052675;28;20401;-70
2021/12/08 09:11:22;;;;;;;0.60;0.40;;;6.40;99.90;;;;;;5052323;28;20489;-71
2021/12/08 09:14:09;;;;;;;1.03;0.93;;;6.50;99.90;;;;;;5052505;28;20415;-70
2021/12/08 09:16:53;;;;;;;0.80;0.60;;;6.50;99.90;;;;;;5052172;28;20415;-71
2021/12/08 09:19:29;;;;;;;0.70;0.47;;;6.50;99.90;;;;;;5052462;28;20401;-72
2021/12/08 09:22:12;;;;;;;0.80;0.60;;;6.50;99.90;;;;;;5052402;28;20502;-71
2021/12/08 09:24:56;;;;;;;0.70;0.40;;;6.40;99.90;;;;;;5052372;28;20417;-71
2021/12/08 09:27:33;;;;;;;0.60;0.50;;;6.30;99.90;;;;;;5053477;28;20402;-69
2021/12/08 09:30:05;;;;;;;0.70;0.60;;;6.30;99.90;;;;;;5054411;28;20413;-70
2021/12/08 09:32:38;;;;;;;0.70;0.50;;;6.20;99.90;;;;;;5054510;28;20469;-70
2021/12/08 09:35:14;;;;;;;0.70;0.40;;;6.30;99.90;;;;;;5054229;28;20408;-70
2021/12/08 09:37:45;;;;;;;0.70;0.50;;;6.30;99.90;;;;;;5054739;28;20455;-70
2021/12/08 09:40:22;;;;;;;0.60;0.50;;;6.10;99.90;;;;;;5054004;28;20798;-69
2021/12/08 09:42:52;;;;;;;0.67;0.50;;;6.10;99.90;;;;;;5054430;28;20476;-70
2021/12/08 09:45:31;;;;;;;0.60;0.40;;;6.20;99.90;;;;;;5054112;28;20432;-71
2021/12/08 09:48:01;;;;;;;0.63;0.50;;;6.30;99.90;;;;;;5054348;28;20429;-70
2021/12/08 09:50:26;;;;;;;0.67;0.50;;;6.40;99.90;;;;;;5053938;28;20903;-70
2021/12/08 09:52:52;;;;;;;0.70;0.47;;;6.50;99.90;;;;;;5054210;28;20411;-70
2021/12/08 09:55:18;;;;;;;0.70;0.50;;;6.60;99.90;;;;;;5052374;28;20468;-70
2021/12/08 09:57:46;;;;;;;0.70;0.50;;;6.50;99.90;;;;;;5050728;28;20524;-70
2021/12/08 10:00:23;;;;;;;2.40;1.77;;;6.60;99.90;;;;;;5067618;28;20181;-70
2021/12/08 10:02:53;;;;;;;0.70;0.40;;;6.70;99.90;;;;;;5053056;28;20405;-70
2021/12/08 10:05:19;;;;;;;0.67;0.47;;;6.80;99.90;;;;;;5073546;28;21068;-72
2021/12/08 10:07:45;;;;;;;0.63;0.40;;;7.00;99.90;;;;;;5056815;28;20405;-71
2021/12/08 10:10:14;;;;;;;0.63;0.50;;;7.10;99.90;;;;;;5055548;28;20409;-70
2021/12/08 10:12:40;;;;;;;0.63;0.50;;;7.20;99.90;;;;;;5055491;28;20460;-70
2021/12/08 10:15:08;;;;;;;0.70;0.50;;;7.30;99.90;;;;;;5053265;28;20410;-70
2021/12/08 10:17:34;;;;;;;0.70;0.50;;;7.40;99.90;;;;;;5054256;28;20471;-70
2021/12/08 10:20:08;;;;;;;0.70;0.50;;;7.50;99.90;;;;;;5054703;28;20906;-70
2021/12/08 10:22:34;;;;;;;0.70;0.50;;;7.50;99.90;;;;;;5053998;28;20225;-70
2021/12/08 10:25:19;;;;;;;0.70;0.50;;;7.50;99.90;;;;;;5054188;28;20410;-70
2021/12/08 10:28:07;;;;;;;1.03;0.70;;;7.70;99.90;;;;;;5069791;28;20175;-70
2021/12/08 10:30:47;;;;;;;0.70;0.50;;;7.60;99.90;;;;;;5053660;28;20421;-70
2021/12/08 10:33:54;;;;;;;0.70;0.50;;;7.60;99.90;;;;;;5053396;28;20454;-70
2021/12/08 10:39:13;;;;;;;0.70;0.47;;;7.50;99.90;;;;;;5053432;28;20412;-70
2021/12/08 10:42:22;;;;;;;0.70;0.50;;;7.60;99.90;;;;;;5053987;28;20515;-70
2021/12/08 10:45:08;;;;;;;0.70;0.50;;;7.50;99.90;;;;;;5011203;28;20490;-70
2021/12/08 10:47:45;;;;;;;0.70;0.50;;;7.60;99.90;;;;;;4993365;28;20418;-70
2021/12/08 10:55:54;;;;;;;0.70;0.50;;;7.50;99.90;;;;;;5051257;28;20419;-70
2021/12/08 10:58:22;;;;;;;0.70;0.50;;;7.50;99.90;;;;;;5054162;28;20401;-70
2021/12/08 11:00:48;;;;;;;0.70;0.43;;;7.50;99.90;;;;;;5055712;28;20785;-70
2021/12/08 11:03:15;;;;;;;0.70;0.50;;;7.60;99.90;;;;;;5056660;28;20487;-71
2021/12/08 11:05:42;;;;;;;1.53;1.00;;;7.50;99.90;;;;;;5056867;28;20414;-71
2021/12/08 11:08:08;;;;;;;0.70;0.50;;;7.40;99.90;;;;;;5057454;28;20443;-70
2021/12/08 11:10:44;;;;;;;0.70;0.50;;;7.40;99.90;;;;;;5055846;28;20405;-71
2021/12/08 11:13:12;;;;;;;0.70;0.50;;;7.40;99.90;;;;;;5055024;28;20662;-71
2021/12/08 11:15:39;;;;;;;0.70;0.50;;;7.40;99.90;;;;;;5054527;28;20398;-71
2021/12/08 11:18:22;;;;;;;0.70;0.47;;;7.60;99.90;;;;;;5054740;28;20913;-71
2021/12/08 11:20:55;;;;;;;0.70;0.50;;;7.60;99.90;;;;;;5054629;28;20425;-72
2021/12/08 11:23:46;;;;;;;0.70;0.47;;;7.60;99.90;;;;;;5054505;28;20412;-71
2021/12/08 11:26:48;;;;;;;0.70;0.60;;;7.60;99.90;;;;;;5054412;28;20747;-70
2021/12/08 11:29:23;;;;;;;0.70;0.50;;;7.60;99.90;;;;;;5031818;28;20419;-71
2021/12/08 11:32:01;;;;;;;0.70;0.40;;;7.70;99.90;;;;;;5054396;28;20534;-71
2021/12/08 11:34:35;;;;;;;0.70;0.50;;;7.80;99.90;;;;;;5054429;28;20397;-71
2021/12/08 11:37:07;;;;;;;0.70;0.50;;;7.80;99.90;;;;;;5054139;28;20399;-71
2021/12/08 11:39:35;;;;;;;0.70;0.50;;;7.90;99.90;;;;;;5054208;28;20973;-70
2021/12/08 11:42:06;;;;;;;0.70;0.40;;;8.20;99.90;;;;;;5054252;28;20449;-70
2021/12/08 11:44:36;;;;;;;0.70;0.50;;;8.20;99.90;;;;;;5054147;28;20424;-71
2021/12/08 11:47:32;;;;;;;1.10;1.00;;;8.40;99.90;;;;;;5053953;28;20416;-71
2021/12/08 11:50:00;;;;;;;0.70;0.50;;;8.60;99.90;;;;;;5053201;28;20456;-71
2021/12/08 11:52:32;;;;;;;0.70;0.50;;;8.40;99.90;;;;;;5053793;28;20853;-70
2021/12/08 11:55:11;;;;;;;0.70;0.50;;;8.30;99.90;;;;;;5053590;28;20429;-71
2021/12/08 11:57:46;;;;;;;0.70;0.50;;;8.30;99.90;;;;;;5054001;28;20429;-70
2021/12/08 12:00:14;;;;;;;7.57;1.27;;;8.50;99.90;;;;;;5052557;28;20414;-69
2021/12/08 12:02:43;;;;;;;0.70;0.50;;;8.30;99.90;;;;;;5053769;28;20510;-69
2021/12/08 12:05:25;;;;;;;0.70;0.50;;;8.50;99.90;;;;;;5053681;28;20402;-69
2021/12/08 12:07:51;;;;;;;1.33;1.23;;;8.60;99.90;;;;;;5053682;28;20463;-69
2021/12/08 12:10:20;;;;;;;0.70;0.50;;;8.50;99.90;;;;;;5053776;28;20409;-69
2021/12/08 12:12:46;;;;;;;0.70;0.50;;;8.20;99.90;;;;;;5053514;28;20492;-70
2021/12/08 12:15:14;;;;;;;0.70;0.50;;;8.20;99.90;;;;;;5053250;28;20433;-69
2021/12/08 12:17:42;;;;;;;0.70;0.50;;;8.40;99.90;;;;;;5068964;28;20167;-70
2021/12/08 12:20:39;;;;;;;0.70;0.47;;;8.40;99.90;;;;;;5053901;28;20413;-69
2021/12/08 12:23:32;;;;;;;0.70;0.47;;;8.70;99.90;;;;;;5053441;28;20401;-69
2021/12/08 12:26:29;;;;;;;0.70;0.60;;;8.80;99.90;;;;;;5052797;28;20787;-70
2021/12/08 12:29:36;;;;;;;0.80;0.63;;;8.80;99.90;;;;;;5054295;28;20393;-69
2021/12/08 12:32:19;;;;;;;0.70;0.50;;;9.10;99.90;;;;;;5053313;28;20767;-69
2021/12/08 12:34:45;;;;;;;5.30;0.80;;;9.10;99.90;;;;;;5053008;28;20435;-70
2021/12/08 12:37:17;;;;;;;0.70;0.50;;;9.30;99.90;;;;;;5053065;28;20535;-70
2021/12/08 12:39:54;;;;;;;0.70;0.50;;;9.40;99.90;;;;;;5053208;28;20166;-70
2021/12/08 12:42:20;;;;;;;0.70;0.50;;;9.50;99.90;;;;;;5053159;28;20425;-70
2021/12/08 12:45:09;;;;;;;0.70;0.50;;;9.10;99.90;;;;;;5070010;28;20767;-71
2021/12/08 12:47:35;;;;;;;0.70;0.50;;;9.20;99.90;;;;;;5052968;28;20397;-70
2021/12/08 12:50:04;;;;;;;27.83;1.57;;;9.00;99.90;;;;;;5052944;28;20401;-70
2021/12/08 12:52:51;;;;;;;0.70;0.50;;;9.00;99.90;;;;;;5052655;28;20449;-70
2021/12/08 12:55:19;;;;;;;0.90;0.87;;;8.90;99.90;;;;;;5052606;28;20420;-70
2021/12/08 12:58:05;;;;;;;0.70;0.50;;;8.80;99.90;;;;;;5052844;28;20441;-70
2021/12/08 13:00:42;;;;;;;0.70;0.50;;;8.80;99.90;;;;;;5052790;28;20447;-70
2021/12/08 13:03:08;;;;;;;0.70;0.50;;;8.80;99.90;;;;;;5052703;28;20883;-70
2021/12/08 13:05:50;;;;;;;0.70;0.57;;;8.50;99.90;;;;;;5052317;28;20812;-69
2021/12/08 13:08:41;;;;;;;0.70;0.50;;;8.50;99.90;;;;;;5052628;28;20743;-70
2021/12/08 13:11:25;;;;;;;0.70;0.50;;;8.30;99.90;;;;;;5052376;28;20477;-70
2021/12/08 13:13:54;;;;;;;0.70;0.50;;;8.20;99.90;;;;;;5052607;28;20933;-69
2021/12/08 13:16:33;;;;;;;0.70;0.50;;;8.20;99.90;;;;;;5052266;28;20405;-70
2021/12/08 13:19:03;;;;;;;0.70;0.50;;;8.30;99.90;;;;;;5052461;28;20496;-70
2021/12/08 13:21:46;;;;;;;3.60;1.10;;;8.30;99.90;;;;;;5051814;28;20421;-70
2021/12/08 13:24:37;;;;;;;0.70;0.50;;;8.20;99.90;;;;;;5052447;28;20447;-69
2021/12/08 13:27:06;;;;;;;0.90;0.60;;;8.30;99.90;;;;;;5052153;28;20459;-70
2021/12/08 13:29:38;;;;;;;0.70;0.50;;;8.20;99.90;;;;;;5050944;28;20467;-69
2021/12/08 13:32:12;;;;;;;0.70;0.50;;;8.20;99.90;;;;;;5052101;28;20965;-69
2021/12/08 13:34:44;;;;;;;0.70;0.50;;;8.20;99.90;;;;;;5052059;28;20385;-70
2021/12/08 13:37:19;;;;;;;0.70;0.50;;;8.30;99.90;;;;;;5051959;28;20455;-70
2021/12/08 13:39:47;;;;;;;0.70;0.50;;;8.20;99.90;;;;;;5052019;28;20910;-70
2021/12/08 13:42:29;;;;;;;0.70;0.50;;;8.30;99.90;;;;;;5051900;28;20429;-70
2021/12/08 13:45:07;;;;;;;0.70;0.63;;;8.20;99.90;;;;;;5051847;28;20431;-70
2021/12/08 13:47:41;;;;;;;0.70;0.50;;;8.20;99.90;;;;;;5051964;28;20495;-69
2021/12/08 13:50:18;;;;;;;0.70;0.50;;;8.10;99.90;;;;;;5051928;28;20501;-70
2021/12/08 13:52:58;;;;;;;0.70;0.47;;;8.30;99.90;;;;;;5051696;28;20986;-69
2021/12/08 13:55:27;;;;;;;0.70;0.50;;;8.40;99.90;;;;;;5051508;28;20417;-70
2021/12/08 13:58:07;;;;;;;0.70;0.40;;;8.30;99.90;;;;;;5051890;28;20467;-70
2021/12/08 14:00:36;;;;;;;0.70;0.50;;;8.40;99.90;;;;;;5051861;28;20408;-70
2021/12/08 14:03:04;;;;;;;0.90;0.73;;;8.30;99.90;;;;;;5051826;28;20432;-70
2021/12/08 14:05:41;;;;;;;1.30;1.20;;;8.20;99.90;;;;;;5051533;28;20895;-70
2021/12/08 14:08:18;;;;;;;0.70;0.50;;;8.20;99.90;;;;;;5051799;28;20425;-70
2021/12/08 14:10:47;;;;;;;0.70;0.50;;;8.20;99.90;;;;;;5051551;28;20421;-70